Accueil
METAR-TAF:

METAR-TAF

Aéroports :

Pékin, Chine

Aéroport international de Pékin-Capitale

latitude: 39-56N, longitude: 116-17E, altitude: 55 m

Observation

Le bulletin a été fait il y a 36 minutes, à 09:00 UTC
Vent 4 kt de sud/sud-est, variant entre sud-est et sud
Température 23°C
Humidité 47%
Pression 1011 hPa
Visibilité 10 km ou plus
pas de nuages en-dessous de 1500 mètres et pas de cumulonimbus.

METAR: ZBAA 290900Z 16002MPS 130V190 CAVOK 23/11 Q1011 NOSIG

Heure: 17:36 (09:36 UTC)

Prévision

Le bulletin a été fait il y a 6 heures et 16 minutes, à 03:20 UTC
Prévision valable du 29 à 06 UTC au 30 à 06 UTC
Vent 8 kt de est/nord-est
Visibilité 10 km ou plus
pas de nuages en-dessous de 1500 mètres et pas de cumulonimbus.
Temporairement
du 29 à 16 UTC au 29 à 22 UTC
Visibilité: 2800 m
faibles averses de pluie, brume

TAF: ZBAA 290320Z 2906/3006 06004MPS CAVOK TX28/2907Z TN18/2921Z TEMPO 2916/2922 2800 -SHRA BR

Observations et prévisions météorologiques de plus de 4000 aéroports (messages METAR et TAF).

Les stations disponibles sont représentées par des disques jaunes et rouges sur la carte.

Passer la souris dessus pour voir le nom de la station.

Cliquer dessus pour voir les observations et prévisions météorologiques.

Pour changer de carte: cliquez sur les boutons verts avec une croix noire pour zoomer, sur le bouton vert avec un tiret pour effectuer un zoom arrière, ou sur les flèches vertes pour les cartes adjacentes.


METAR-TAF: